createdAt,value
2022-09-13T00:01:35.704Z,4.55
2022-09-13T00:04:02.893Z,3.13
2022-09-13T00:06:29.694Z,7.38
2022-09-13T00:08:56.637Z,8.07
2022-09-13T00:11:26.398Z,5.35
2022-09-13T00:13:54.764Z,4.65
2022-09-13T00:16:24.983Z,5.78
2022-09-13T00:18:52.817Z,2.47
2022-09-13T00:21:21.795Z,5.10
2022-09-13T00:23:51.203Z,6.78
2022-09-13T00:26:27.789Z,4.50
2022-09-13T00:28:57.266Z,2.45
2022-09-13T00:31:27.672Z,5.97
2022-09-13T00:33:55.174Z,3.28
2022-09-13T00:36:21.977Z,5.40
2022-09-13T00:38:48.804Z,4.93
2022-09-13T00:41:17.882Z,3.38
2022-09-13T00:43:56.915Z,3.38
2022-09-13T00:46:26.514Z,3.58
2022-09-13T00:49:21.357Z,3.60
2022-09-13T00:51:56.249Z,2.35
2022-09-13T00:54:26.957Z,2.42
2022-09-13T00:56:58.145Z,2.08
2022-09-13T00:59:35.621Z,2.53
2022-09-13T01:02:04.561Z,4.80
2022-09-13T01:04:35.072Z,4.07
2022-09-13T01:07:06.206Z,2.38
2022-09-13T01:09:36.978Z,4.25
2022-09-13T01:12:10.441Z,6.47
2022-09-13T01:14:37.560Z,4.22
2022-09-13T01:17:04.734Z,2.65
2022-09-13T01:19:31.939Z,4.65
2022-09-13T01:22:23.873Z,4.85
2022-09-13T01:25:28.505Z,2.97
2022-09-13T01:28:16.619Z,3.92
2022-09-13T01:31:12.360Z,2.85
2022-09-13T01:33:58.771Z,5.05
2022-09-13T01:36:42.845Z,5.80
2022-09-13T01:39:22.813Z,4.38
2022-09-13T01:42:22.531Z,4.35
2022-09-13T01:44:57.965Z,7.10
2022-09-13T01:47:38.829Z,3.22
2022-09-13T01:50:23.380Z,4.13
2022-09-13T01:53:01.236Z,3.03
2022-09-13T01:55:50.788Z,8.05
2022-09-13T01:58:22.481Z,5.13
2022-09-13T02:01:30.926Z,4.07
2022-09-13T02:04:13.409Z,3.90
2022-09-13T02:06:50.722Z,4.45
2022-09-13T02:09:22.217Z,4.30
2022-09-13T02:11:58.378Z,3.28
2022-09-13T02:14:36.390Z,3.38
2022-09-13T02:17:13.571Z,2.38
2022-09-13T02:19:55.118Z,3.17
2022-09-13T02:22:29.061Z,3.00
2022-09-13T02:25:00.240Z,2.85
2022-09-13T02:27:33.192Z,5.22
2022-09-13T02:30:07.714Z,3.58
2022-09-13T02:32:44.229Z,5.10
2022-09-13T02:35:32.716Z,3.15
2022-09-13T02:38:10.457Z,4.30
2022-09-13T02:40:46.198Z,4.78
2022-09-13T02:43:20.943Z,3.20
2022-09-13T02:45:57.144Z,4.97
2022-09-13T02:48:41.888Z,2.72
2022-09-13T02:51:30.522Z,4.80
2022-09-13T02:54:18.686Z,3.80
2022-09-13T02:56:59.411Z,4.32
2022-09-13T02:59:26.846Z,3.72
2022-09-13T03:02:12.823Z,18.10
2022-09-13T03:04:40.081Z,6.35
2022-09-13T03:07:12.349Z,5.88
2022-09-13T03:09:54.641Z,4.82
2022-09-13T03:12:47.978Z,5.85
2022-09-13T03:15:32.846Z,3.70
2022-09-13T03:18:37.531Z,4.50
2022-09-13T03:21:27.761Z,4.10
2022-09-13T03:24:15.617Z,4.60
2022-09-13T03:27:03.534Z,6.35
2022-09-13T03:30:11.636Z,4.15
2022-09-13T03:32:53.315Z,8.80
2022-09-13T03:35:27.949Z,9.13
2022-09-13T03:38:16.041Z,6.53
2022-09-13T03:40:49.970Z,4.78
2022-09-13T03:43:25.780Z,5.05
2022-09-13T03:45:56.939Z,5.65
2022-09-13T03:48:24.716Z,5.70
2022-09-13T03:50:51.802Z,5.80
2022-09-13T03:53:23.565Z,4.35
2022-09-13T03:55:50.320Z,3.65
2022-09-13T03:58:19.361Z,7.15
2022-09-13T04:00:46.512Z,5.55
2022-09-13T04:03:14.132Z,4.25
2022-09-13T04:05:41.045Z,5.97
2022-09-13T04:08:08.412Z,5.20
2022-09-13T04:10:36.289Z,8.70
2022-09-13T04:13:03.957Z,7.32
2022-09-13T04:15:31.316Z,6.65
2022-09-13T04:18:00.035Z,9.32
2022-09-13T04:20:27.014Z,4.65
2022-09-13T04:22:55.439Z,6.88
2022-09-13T04:25:23.146Z,6.07
2022-09-13T04:27:55.289Z,4.57
2022-09-13T04:30:23.745Z,5.30
2022-09-13T04:32:50.686Z,3.65
2022-09-13T04:35:19.612Z,3.33
2022-09-13T04:37:48.426Z,4.82
2022-09-13T04:40:15.472Z,6.05
2022-09-13T04:42:46.293Z,5.32
2022-09-13T04:45:13.530Z,6.82
2022-09-13T04:47:40.645Z,5.82
2022-09-13T04:50:08.114Z,5.30
2022-09-13T04:52:34.901Z,4.38
2022-09-13T04:55:02.081Z,4.85
2022-09-13T04:57:29.549Z,3.58
2022-09-13T04:59:56.453Z,4.78
2022-09-13T05:02:23.351Z,8.32
2022-09-13T05:04:50.184Z,7.15
2022-09-13T05:07:18.228Z,5.30
2022-09-13T05:09:45.123Z,6.28
2022-09-13T05:12:13.243Z,6.85
2022-09-13T05:14:40.139Z,8.13
2022-09-13T05:17:07.117Z,7.85
2022-09-13T05:19:34.962Z,7.18
2022-09-13T05:22:02.467Z,6.68
2022-09-13T05:24:29.243Z,6.20
2022-09-13T05:26:56.118Z,6.90
2022-09-13T05:29:22.866Z,6.50
2022-09-13T05:31:49.748Z,7.85
2022-09-13T05:34:17.979Z,7.88
2022-09-13T05:36:48.443Z,7.82
2022-09-13T05:40:00.384Z,12.80
2022-09-13T05:42:08.045Z,9.85
2022-09-13T05:44:35.919Z,9.27
2022-09-13T05:47:05.795Z,9.77
2022-09-13T05:49:33.813Z,11.05
2022-09-13T05:52:00.677Z,11.45
2022-09-13T05:54:27.502Z,11.43
2022-09-13T05:56:57.452Z,9.27
2022-09-13T05:59:24.469Z,10.48
2022-09-13T06:01:54.705Z,14.48
2022-09-13T06:04:24.750Z,13.02
2022-09-13T06:06:52.638Z,10.65
2022-09-13T06:09:21.025Z,11.77
2022-09-13T06:11:47.910Z,10.80
2022-09-13T06:14:14.821Z,11.45
2022-09-13T06:16:42.540Z,11.27
2022-09-13T06:19:09.350Z,12.30
2022-09-13T06:21:36.456Z,11.70
2022-09-13T06:24:03.948Z,15.68
2022-09-13T06:26:31.979Z,14.07
2022-09-13T06:28:58.853Z,13.73
2022-09-13T06:31:28.165Z,12.90
2022-09-13T06:34:00.322Z,10.43
2022-09-13T06:36:27.447Z,13.73
2022-09-13T06:38:54.492Z,13.55
2022-09-13T06:41:24.722Z,19.67
2022-09-13T06:43:57.689Z,14.48
2022-09-13T06:46:26.527Z,17.77
2022-09-13T06:48:53.986Z,14.77
2022-09-13T06:51:23.474Z,16.08
2022-09-13T06:53:52.178Z,13.00
2022-09-13T06:56:33.812Z,16.92
2022-09-13T06:59:05.526Z,14.10
2022-09-13T07:01:43.649Z,9.20
2022-09-13T07:04:17.338Z,9.90
2022-09-13T07:06:49.102Z,14.52
2022-09-13T07:09:19.112Z,13.80
2022-09-13T07:11:49.051Z,19.60
2022-09-13T07:14:22.785Z,14.50
2022-09-13T07:16:51.871Z,10.48
2022-09-13T07:19:26.513Z,15.68
2022-09-13T07:21:54.182Z,16.35
2022-09-13T07:24:23.133Z,12.40
2022-09-13T07:26:50.741Z,14.02
2022-09-13T07:29:22.564Z,14.20
2022-09-13T07:31:52.444Z,14.35
2022-09-13T07:34:21.765Z,16.40
2022-09-13T07:36:50.127Z,20.42
2022-09-13T07:39:22.423Z,11.73
2022-09-13T07:41:54.190Z,14.23
2022-09-13T07:44:23.053Z,17.13
2022-09-13T07:46:51.041Z,16.55
2022-09-13T07:49:19.246Z,16.55
2022-09-13T07:51:46.329Z,11.30
2022-09-13T07:54:16.417Z,13.50
2022-09-13T07:56:44.726Z,10.45
2022-09-13T07:59:15.200Z,8.32
2022-09-13T08:01:44.613Z,11.40
2022-09-13T08:04:15.041Z,10.68
2022-09-13T08:06:43.709Z,8.45
2022-09-13T08:09:12.222Z,7.90
2022-09-13T08:11:42.450Z,11.45
2022-09-13T08:14:11.738Z,8.73
2022-09-13T08:16:39.472Z,9.30
2022-09-13T08:19:07.490Z,7.32
2022-09-13T08:21:36.741Z,15.60
2022-09-13T08:24:05.584Z,10.95
2022-09-13T08:26:34.556Z,8.52
2022-09-13T08:29:03.902Z,11.70
2022-09-13T08:31:31.969Z,11.65
2022-09-13T08:33:59.426Z,9.45
2022-09-13T08:36:27.708Z,6.28
2022-09-13T08:39:01.228Z,12.02
2022-09-13T08:41:40.421Z,13.68
2022-09-13T08:44:29.497Z,13.98
2022-09-13T08:47:11.870Z,10.05
2022-09-13T08:49:45.757Z,8.90
2022-09-13T08:52:32.526Z,18.65
2022-09-13T08:55:07.004Z,10.25
2022-09-13T08:57:53.216Z,9.25
2022-09-13T09:00:32.319Z,10.32
2022-09-13T09:03:17.089Z,13.30
2022-09-13T09:05:49.662Z,13.38
2022-09-13T09:08:40.236Z,14.43
2022-09-13T09:11:37.796Z,12.77
2022-09-13T09:14:22.768Z,15.57
2022-09-13T09:16:55.218Z,14.70
2022-09-13T09:19:22.032Z,10.50
2022-09-13T09:21:51.222Z,17.15
2022-09-13T09:24:24.024Z,18.33
2022-09-13T09:26:55.921Z,13.35
2022-09-13T09:29:44.171Z,16.00
2022-09-13T09:32:47.393Z,15.02
2022-09-13T09:35:28.614Z,20.05
2022-09-13T09:38:27.856Z,35.97
2022-09-13T09:40:54.678Z,28.67
2022-09-13T09:43:33.464Z,19.98
2022-09-13T09:46:02.978Z,14.63
2022-09-13T09:48:40.132Z,14.20
2022-09-13T09:51:10.551Z,14.55
2022-09-13T09:53:43.452Z,12.13
2022-09-13T09:56:24.353Z,13.18
2022-09-13T09:58:54.416Z,10.95
2022-09-13T10:01:37.733Z,14.85
2022-09-13T10:04:10.775Z,16.95
2022-09-13T10:06:40.433Z,16.23
2022-09-13T10:09:22.036Z,14.23
2022-09-13T10:11:56.619Z,15.80
2022-09-13T10:14:38.114Z,13.27
2022-09-13T10:17:16.555Z,15.02
2022-09-13T10:20:03.958Z,12.50
2022-09-13T10:22:32.600Z,12.25
2022-09-13T10:25:23.260Z,11.40
2022-09-13T10:28:00.958Z,16.90
2022-09-13T10:30:38.831Z,16.30
2022-09-13T10:33:08.222Z,12.02
2022-09-13T10:35:36.024Z,10.57
2022-09-13T10:38:02.871Z,17.13
2022-09-13T10:40:38.559Z,13.27
2022-09-13T10:43:15.241Z,14.80
2022-09-13T10:45:42.782Z,14.00
2022-09-13T10:48:16.349Z,16.60
2022-09-13T10:51:14.849Z,11.05
2022-09-13T10:53:42.956Z,12.45
2022-09-13T10:56:26.398Z,12.13
2022-09-13T10:59:19.655Z,13.00
2022-09-13T11:02:24.937Z,12.27
2022-09-13T11:05:14.577Z,7.95
2022-09-13T11:08:04.467Z,12.50
2022-09-13T11:10:51.241Z,8.82
2022-09-13T11:13:40.825Z,11.05
2022-09-13T11:16:15.622Z,11.57
2022-09-13T11:18:58.034Z,7.47
2022-09-13T11:24:17.819Z,9.52
2022-09-13T11:27:21.549Z,12.25
2022-09-13T11:30:33.366Z,7.78
2022-09-13T11:33:19.382Z,8.60
2022-09-13T11:36:11.827Z,9.32
2022-09-13T11:39:13.916Z,11.13
2022-09-13T11:41:51.262Z,6.13
2022-09-13T11:44:50.930Z,9.05
2022-09-13T11:47:33.482Z,9.38
2022-09-13T11:50:23.236Z,11.75
2022-09-13T11:53:06.934Z,7.45
2022-09-13T11:55:40.738Z,8.48
2022-09-13T11:58:35.385Z,7.65
2022-09-13T12:01:08.387Z,14.30
2022-09-13T12:03:48.862Z,11.32
2022-09-13T12:06:28.885Z,13.45
2022-09-13T12:09:08.211Z,12.95
2022-09-13T12:12:05.026Z,14.38
2022-09-13T12:14:59.917Z,8.60
2022-09-13T12:17:34.999Z,8.77
2022-09-13T12:20:05.261Z,8.48
2022-09-13T12:22:35.639Z,12.63
2022-09-13T12:25:33.302Z,8.43
2022-09-13T12:28:08.805Z,8.82
2022-09-13T12:31:04.750Z,15.45
2022-09-13T12:33:31.772Z,6.50
2022-09-13T12:36:25.777Z,8.65
2022-09-13T12:39:08.555Z,13.13
2022-09-13T12:42:35.050Z,14.60
2022-09-13T12:45:17.679Z,13.65
2022-09-13T12:47:52.698Z,8.63
2022-09-13T12:50:58.992Z,11.15
2022-09-13T12:54:21.071Z,10.80
2022-09-13T12:57:10.297Z,14.38
2022-09-13T12:59:55.540Z,9.35
2022-09-13T13:02:36.276Z,11.18
2022-09-13T13:05:15.561Z,12.38
2022-09-13T13:07:46.409Z,9.25
2022-09-13T13:10:35.193Z,7.65
2022-09-13T13:13:22.701Z,8.65
2022-09-13T13:15:50.584Z,11.18
2022-09-13T13:18:30.914Z,9.25
2022-09-13T13:20:58.721Z,12.13
2022-09-13T13:23:36.521Z,19.50
2022-09-13T13:26:09.245Z,10.95
2022-09-13T13:28:45.271Z,9.70
2022-09-13T13:31:27.831Z,12.32
2022-09-13T13:34:02.127Z,14.63
2022-09-13T13:36:42.893Z,10.98
2022-09-13T13:39:23.202Z,8.13
2022-09-13T13:42:23.511Z,10.95
2022-09-13T13:44:53.461Z,12.02
2022-09-13T13:47:20.345Z,13.30
2022-09-13T13:50:03.719Z,11.80
2022-09-13T13:52:52.354Z,8.63
2022-09-13T13:55:31.406Z,12.13
2022-09-13T13:58:05.752Z,8.43
2022-09-13T14:00:36.521Z,9.77
2022-09-13T14:03:03.337Z,7.05
2022-09-13T14:06:08.114Z,12.23
2022-09-13T14:11:50.549Z,8.73
2022-09-13T14:14:38.658Z,8.25
2022-09-13T14:17:33.361Z,10.85
2022-09-13T14:20:05.617Z,9.23
2022-09-13T14:25:23.173Z,7.78
2022-09-13T14:27:52.823Z,12.50
2022-09-13T14:30:24.082Z,10.73
2022-09-13T14:32:56.478Z,8.25
2022-09-13T14:35:36.876Z,7.40
2022-09-13T14:38:13.196Z,15.38
2022-09-13T14:40:40.555Z,9.15
2022-09-13T14:43:21.289Z,14.40
2022-09-13T14:45:53.942Z,8.80
2022-09-13T14:48:24.877Z,9.70
2022-09-13T14:50:57.713Z,12.25
2022-09-13T14:53:27.129Z,10.95
2022-09-13T14:56:01.849Z,16.42
2022-09-13T14:58:46.590Z,13.75
2022-09-13T15:01:17.934Z,14.02
2022-09-13T15:03:46.455Z,9.77
2022-09-13T15:06:27.222Z,18.75
2022-09-13T15:08:58.912Z,16.20
2022-09-13T15:11:32.509Z,12.10
2022-09-13T15:14:23.782Z,14.75
2022-09-13T15:16:53.455Z,11.68
2022-09-13T15:19:31.918Z,11.90
2022-09-13T15:22:14.306Z,8.85
2022-09-13T15:24:47.677Z,13.30
2022-09-13T15:27:42.459Z,9.85
2022-09-13T15:30:30.292Z,9.65
2022-09-13T15:33:15.926Z,12.73
2022-09-13T15:35:45.435Z,9.40
2022-09-13T15:38:30.924Z,8.65
2022-09-13T15:41:13.161Z,10.18
2022-09-13T15:43:41.036Z,14.77
2022-09-13T15:46:16.679Z,10.50
2022-09-13T15:48:59.031Z,10.05
2022-09-13T15:51:26.705Z,9.43
2022-09-13T15:53:55.018Z,11.55
2022-09-13T15:56:28.197Z,11.52
2022-09-13T15:58:55.105Z,14.27
2022-09-13T16:01:22.073Z,11.63
2022-09-13T16:03:50.741Z,10.38
2022-09-13T16:06:24.480Z,12.73
2022-09-13T16:08:51.726Z,10.20
2022-09-13T16:11:18.578Z,9.80
2022-09-13T16:13:45.414Z,11.43
2022-09-13T16:16:14.703Z,12.68
2022-09-13T16:18:41.642Z,13.38
2022-09-13T16:21:08.734Z,10.45
2022-09-13T16:23:35.667Z,15.63
2022-09-13T16:26:04.883Z,11.18
2022-09-13T16:28:31.741Z,12.75
2022-09-13T16:30:58.644Z,14.90
2022-09-13T16:33:25.717Z,14.80
2022-09-13T16:35:52.571Z,12.82
2022-09-13T16:38:20.352Z,12.70
2022-09-13T16:40:47.697Z,13.20
2022-09-13T16:43:15.630Z,13.82
2022-09-13T16:45:42.902Z,10.85
2022-09-13T16:48:11.018Z,10.23
2022-09-13T16:50:42.190Z,9.82
2022-09-13T16:53:10.101Z,12.82
2022-09-13T16:55:37.051Z,13.60
2022-09-13T16:58:04.025Z,10.13
2022-09-13T17:00:31.003Z,11.60
2022-09-13T17:02:57.844Z,9.18
2022-09-13T17:05:25.097Z,10.20
2022-09-13T17:07:53.158Z,9.80
2022-09-13T17:10:21.458Z,11.50
2022-09-13T17:12:48.811Z,7.40
2022-09-13T17:15:17.102Z,9.70
2022-09-13T17:17:44.981Z,8.45
2022-09-13T17:20:13.371Z,11.73
2022-09-13T17:22:40.839Z,9.55
2022-09-13T17:25:08.545Z,9.35
2022-09-13T17:27:36.661Z,8.20
2022-09-13T17:30:05.192Z,10.52
2022-09-13T17:32:32.246Z,14.27
2022-09-13T17:34:59.242Z,12.63
2022-09-13T17:37:27.073Z,10.82
2022-09-13T17:39:54.046Z,11.55
2022-09-13T17:42:23.305Z,11.93
2022-09-13T17:44:51.012Z,11.45
2022-09-13T17:47:17.897Z,13.35
2022-09-13T17:49:46.780Z,12.65
2022-09-13T17:52:13.835Z,13.95
2022-09-13T17:54:40.754Z,12.02
2022-09-13T17:57:07.694Z,10.88
2022-09-13T17:59:35.715Z,14.45
2022-09-13T18:02:02.720Z,13.95
2022-09-13T18:04:29.561Z,12.30
2022-09-13T18:06:56.444Z,14.80
2022-09-13T18:09:24.483Z,16.77
2022-09-13T18:11:51.270Z,11.07
2022-09-13T18:14:19.351Z,13.93
2022-09-13T18:16:47.061Z,15.63
2022-09-13T18:19:14.058Z,15.30
2022-09-13T18:21:41.216Z,14.07
2022-09-13T18:24:08.208Z,12.68
2022-09-13T18:26:35.841Z,18.75
2022-09-13T18:29:09.378Z,16.08
2022-09-13T18:31:38.541Z,13.18
2022-09-13T18:34:09.703Z,16.45
2022-09-13T18:36:37.329Z,13.00
2022-09-13T18:39:06.281Z,15.43
2022-09-13T18:41:35.822Z,12.10
2022-09-13T18:44:05.050Z,13.32
2022-09-13T18:46:34.765Z,12.65
2022-09-13T18:49:05.075Z,13.20
2022-09-13T18:51:35.332Z,15.13
2022-09-13T18:54:03.450Z,12.50
2022-09-13T18:56:33.072Z,14.02
2022-09-13T18:59:02.439Z,11.90
2022-09-13T19:01:33.980Z,11.27
2022-09-13T19:04:10.379Z,11.50
2022-09-13T19:06:39.816Z,15.13
2022-09-13T19:09:08.697Z,11.93
2022-09-13T19:11:46.840Z,12.35
2022-09-13T19:14:27.243Z,15.18
2022-09-13T19:17:01.289Z,12.50
2022-09-13T19:19:30.293Z,12.55
2022-09-13T19:21:57.376Z,14.85
2022-09-13T19:24:28.473Z,12.43
2022-09-13T19:26:55.460Z,12.40
2022-09-13T19:29:23.393Z,10.98
2022-09-13T19:31:52.481Z,10.27
2022-09-13T19:34:22.057Z,13.35
2022-09-13T19:36:52.475Z,12.15
2022-09-13T19:39:20.373Z,13.13
2022-09-13T19:41:47.399Z,11.88
2022-09-13T19:44:14.685Z,12.27
2022-09-13T19:46:43.574Z,10.68
2022-09-13T19:49:16.442Z,15.70
2022-09-13T19:51:50.176Z,11.25
2022-09-13T19:54:19.390Z,12.07
2022-09-13T19:56:46.901Z,12.85
2022-09-13T19:59:19.797Z,11.27
2022-09-13T20:01:47.806Z,11.88
2022-09-13T20:04:20.782Z,12.48
2022-09-13T20:06:50.040Z,10.82
2022-09-13T20:09:18.822Z,10.05
2022-09-13T20:11:48.719Z,11.73
2022-09-13T20:14:19.369Z,14.77
2022-09-13T20:16:47.801Z,11.57
2022-09-13T20:19:39.852Z,11.07
2022-09-13T20:22:09.847Z,10.38
2022-09-13T20:24:37.072Z,9.00
2022-09-13T20:27:04.257Z,9.50
2022-09-13T20:29:32.242Z,9.77
2022-09-13T20:31:59.978Z,10.43
2022-09-13T20:34:28.257Z,11.38
2022-09-13T20:36:55.108Z,11.18
2022-09-13T20:39:22.964Z,11.75
2022-09-13T20:41:50.876Z,13.48
2022-09-13T20:44:20.775Z,11.90
2022-09-13T20:46:47.570Z,10.23
2022-09-13T20:49:15.587Z,11.82
2022-09-13T20:51:43.529Z,11.27
2022-09-13T20:54:13.257Z,10.07
2022-09-13T20:56:40.833Z,12.45
2022-09-13T20:59:07.776Z,12.57
2022-09-13T21:01:36.561Z,10.25
2022-09-13T21:04:03.742Z,14.45
2022-09-13T21:06:36.728Z,14.90
2022-09-13T21:09:03.769Z,12.02
2022-09-13T21:11:35.845Z,13.90
2022-09-13T21:14:06.076Z,13.52
2022-09-13T21:16:45.160Z,16.10
2022-09-13T21:19:12.257Z,11.95
2022-09-13T21:21:41.673Z,17.52
2022-09-13T21:24:14.759Z,15.52
2022-09-13T21:26:42.774Z,19.75
2022-09-13T21:29:10.716Z,20.02
2022-09-13T21:31:38.118Z,27.55
2022-09-13T21:34:15.082Z,21.08
2022-09-13T21:36:42.955Z,26.08
2022-09-13T21:39:10.204Z,25.25
2022-09-13T21:41:37.299Z,21.15
2022-09-13T21:44:04.556Z,23.33
2022-09-13T21:46:34.080Z,23.05
2022-09-13T21:49:06.477Z,20.85
2022-09-13T21:54:06.719Z,22.83
2022-09-13T21:56:38.403Z,23.75
2022-09-13T21:59:08.922Z,24.13
2022-09-13T22:01:39.131Z,27.52
2022-09-13T22:04:07.504Z,22.35
2022-09-13T22:06:35.173Z,22.45
2022-09-13T22:09:07.745Z,25.15
2022-09-13T22:11:44.466Z,22.55
2022-09-13T22:14:13.928Z,23.77
2022-09-13T22:16:42.586Z,28.02
2022-09-13T22:19:11.916Z,27.25
2022-09-13T22:21:41.670Z,29.48
2022-09-13T22:24:12.756Z,26.38
2022-09-13T22:26:40.660Z,26.45
2022-09-13T22:29:08.704Z,25.05
2022-09-13T22:31:38.693Z,23.52
2022-09-13T22:34:06.904Z,18.17
2022-09-13T22:36:34.045Z,18.27
2022-09-13T22:39:00.902Z,18.05
2022-09-13T22:41:31.222Z,17.20
2022-09-13T22:43:59.701Z,19.15
2022-09-13T22:46:34.984Z,15.30
2022-09-13T22:49:02.633Z,12.35
2022-09-13T22:51:29.757Z,16.15
2022-09-13T22:53:56.888Z,15.88
2022-09-13T22:56:32.137Z,12.05
2022-09-13T22:59:08.489Z,11.77
2022-09-13T23:01:36.179Z,16.33
2022-09-13T23:04:04.007Z,12.30
2022-09-13T23:06:32.032Z,13.98
2022-09-13T23:09:01.223Z,14.75
2022-09-13T23:11:31.722Z,18.83
2022-09-13T23:14:01.772Z,14.57
2022-09-13T23:16:32.061Z,13.77
2022-09-13T23:19:00.233Z,16.67
2022-09-13T23:21:31.015Z,14.75
2022-09-13T23:23:59.809Z,18.05
2022-09-13T23:26:29.317Z,16.02
2022-09-13T23:28:58.459Z,20.75
2022-09-13T23:31:28.821Z,18.48
2022-09-13T23:34:02.054Z,21.15
2022-09-13T23:36:31.757Z,19.15
2022-09-13T23:38:59.325Z,17.92
2022-09-13T23:41:27.171Z,18.92
2022-09-13T23:43:54.353Z,14.25
2022-09-13T23:46:24.189Z,18.17
2022-09-13T23:48:52.045Z,19.67
2022-09-13T23:51:25.723Z,19.88
2022-09-13T23:53:57.184Z,15.13
2022-09-13T23:56:26.715Z,13.82
2022-09-13T23:58:56.334Z,15.57
